createdAt,value
2023-09-26T00:00:22.065Z,98186.75
2023-09-26T00:02:49.806Z,98181.75
2023-09-26T00:05:19.942Z,98181.97
2023-09-26T00:07:50.577Z,98184.13
2023-09-26T00:10:19.779Z,98181.19
2023-09-26T00:12:48.158Z,98174.59
2023-09-26T00:15:16.726Z,98174.94
2023-09-26T00:17:45.271Z,98172.22
2023-09-26T00:20:17.115Z,98160.41
2023-09-26T00:22:44.819Z,98172.94
2023-09-26T00:25:14.253Z,98174.88
2023-09-26T00:27:42.044Z,98175.03
2023-09-26T00:30:10.909Z,98175.81
2023-09-26T00:32:40.034Z,98169.03
2023-09-26T00:35:13.275Z,98147.22
2023-09-26T00:37:42.300Z,98164.88
2023-09-26T00:40:16.445Z,98170.78
2023-09-26T00:42:46.257Z,98165.31
2023-09-26T00:45:14.733Z,98164.25
2023-09-26T00:47:43.417Z,98150.44
2023-09-26T00:50:13.959Z,98161.28
2023-09-26T00:52:43.424Z,98156.69
2023-09-26T00:55:12.050Z,98143.97
2023-09-26T00:57:41.761Z,98162.88
2023-09-26T01:00:14.583Z,98157.75
2023-09-26T01:02:42.729Z,98169.59
2023-09-26T01:05:11.150Z,98150.97
2023-09-26T01:07:40.411Z,98161.06
2023-09-26T01:10:09.753Z,98162.78
2023-09-26T01:12:39.631Z,98164.78
2023-09-26T01:15:08.876Z,98168.31
2023-09-26T01:17:37.620Z,98165.63
2023-09-26T01:20:13.101Z,98173.25
2023-09-26T01:22:45.449Z,98162.69
2023-09-26T01:25:16.935Z,98164.41
2023-09-26T01:27:45.008Z,98169.38
2023-09-26T01:30:14.494Z,98163.91
2023-09-26T01:32:42.344Z,98161.44
2023-09-26T01:35:10.724Z,98158.72
2023-09-26T01:37:39.080Z,98159.53
2023-09-26T01:40:17.024Z,98148.78
2023-09-26T01:42:46.532Z,98148.19
2023-09-26T01:45:14.465Z,98157.56
2023-09-26T01:47:47.697Z,98142.09
2023-09-26T01:50:16.544Z,98149.66
2023-09-26T01:52:45.023Z,98144.25
2023-09-26T01:55:15.352Z,98129.75
2023-09-26T01:57:43.328Z,98158.09
2023-09-26T02:00:14.080Z,98150.81
2023-09-26T02:02:43.040Z,98144.84
2023-09-26T02:05:11.826Z,98140.00
2023-09-26T02:07:39.956Z,98137.56
2023-09-26T02:10:09.161Z,98132.41
2023-09-26T02:12:38.722Z,98132.22
2023-09-26T02:15:09.519Z,98129.78
2023-09-26T02:17:39.060Z,98137.06
2023-09-26T02:20:13.460Z,98127.91
2023-09-26T02:22:43.047Z,98136.31
2023-09-26T02:25:11.768Z,98135.53
2023-09-26T02:27:39.757Z,98141.44
2023-09-26T02:30:09.983Z,98151.78
2023-09-26T02:32:40.157Z,98151.31
2023-09-26T02:35:10.557Z,98159.50
2023-09-26T02:37:39.942Z,98147.31
2023-09-26T02:40:11.088Z,98155.44
2023-09-26T02:42:39.924Z,98158.63
2023-09-26T02:45:09.185Z,98143.75
2023-09-26T02:47:37.145Z,98150.72
2023-09-26T02:50:08.856Z,98151.78
2023-09-26T02:52:36.638Z,98148.78
2023-09-26T02:55:04.813Z,98157.50
2023-09-26T02:57:35.261Z,98135.84
2023-09-26T03:00:15.191Z,98146.94
2023-09-26T03:02:43.433Z,98158.88
2023-09-26T03:05:13.056Z,98141.81
2023-09-26T03:07:41.516Z,98137.50
2023-09-26T03:10:10.411Z,98139.44
2023-09-26T03:12:38.332Z,98132.16
2023-09-26T03:15:08.564Z,98137.22
2023-09-26T03:17:36.790Z,98134.84
2023-09-26T03:20:09.951Z,98135.13
2023-09-26T03:22:39.408Z,98131.09
2023-09-26T03:25:08.218Z,98135.94
2023-09-26T03:27:36.329Z,98152.16
2023-09-26T03:30:04.198Z,98118.47
2023-09-26T03:32:32.326Z,98123.84
2023-09-26T03:35:00.382Z,98109.31
2023-09-26T03:37:28.151Z,98133.81
2023-09-26T03:39:57.630Z,98135.94
2023-09-26T03:42:25.717Z,98117.88
2023-09-26T03:44:53.882Z,98115.19
2023-09-26T03:47:21.889Z,98118.47
2023-09-26T03:49:54.544Z,98115.47
2023-09-26T03:52:22.558Z,98125.81
2023-09-26T03:54:51.094Z,98116.41
2023-09-26T03:57:20.604Z,98109.13
2023-09-26T03:59:50.886Z,98128.78
2023-09-26T04:02:19.784Z,98128.03
2023-09-26T04:04:48.277Z,98132.16
2023-09-26T04:07:16.545Z,98135.31
2023-09-26T04:09:45.261Z,98141.00
2023-09-26T04:12:13.619Z,98134.50
2023-09-26T04:14:42.946Z,98127.53
2023-09-26T04:17:11.209Z,98115.66
2023-09-26T04:19:39.562Z,98132.94
2023-09-26T04:22:07.730Z,98120.22
2023-09-26T04:24:36.105Z,98123.19
2023-09-26T04:27:04.171Z,98124.50
2023-09-26T04:29:32.531Z,98123.97
2023-09-26T04:32:02.065Z,98133.72
2023-09-26T04:34:30.765Z,98126.16
2023-09-26T04:36:58.935Z,98114.59
2023-09-26T04:39:27.812Z,98108.91
2023-09-26T04:41:56.195Z,98114.59
2023-09-26T04:44:24.501Z,98110.28
2023-09-26T04:46:53.427Z,98113.53
2023-09-26T04:49:22.924Z,98113.25
2023-09-26T04:51:51.560Z,98114.91
2023-09-26T04:54:19.634Z,98133.75
2023-09-26T04:56:48.322Z,98120.78
2023-09-26T04:59:16.336Z,98127.81
2023-09-26T05:01:47.049Z,98131.63
2023-09-26T05:04:15.338Z,98144.38
2023-09-26T05:06:45.192Z,98125.44
2023-09-26T05:09:13.295Z,98124.88
2023-09-26T05:11:41.779Z,98114.38
2023-09-26T05:14:09.836Z,98135.66
2023-09-26T05:16:37.934Z,98140.25
2023-09-26T05:19:06.848Z,98131.84
2023-09-26T05:21:35.315Z,98130.66
2023-09-26T05:24:06.532Z,98133.88
2023-09-26T05:26:34.787Z,98134.44
2023-09-26T05:29:03.074Z,98129.75
2023-09-26T05:31:33.442Z,98129.75
2023-09-26T05:34:01.979Z,98131.22
2023-09-26T05:36:30.389Z,98133.09
2023-09-26T05:38:58.867Z,98138.69
2023-09-26T05:41:28.738Z,98133.53
2023-09-26T05:43:57.591Z,98133.25
2023-09-26T05:46:25.956Z,98137.78
2023-09-26T05:48:54.467Z,98141.75
2023-09-26T05:51:22.811Z,98146.34
2023-09-26T05:53:51.199Z,98153.06
2023-09-26T05:56:19.767Z,98155.56
2023-09-26T05:58:50.646Z,98149.19
2023-09-26T06:01:19.700Z,98154.19
2023-09-26T06:03:48.103Z,98156.97
2023-09-26T06:06:16.534Z,98157.47
2023-09-26T06:08:45.220Z,98157.97
2023-09-26T06:11:13.713Z,98159.50
2023-09-26T06:13:44.247Z,98164.81
2023-09-26T06:16:14.181Z,98160.06
2023-09-26T06:18:42.420Z,98158.84
2023-09-26T06:21:10.564Z,98176.72
2023-09-26T06:23:39.210Z,98205.88
2023-09-26T06:26:07.506Z,98219.16
2023-09-26T06:28:36.074Z,98241.06
2023-09-26T06:31:08.403Z,98250.47
2023-09-26T06:33:38.871Z,98255.66
2023-09-26T06:36:13.174Z,98258.66
2023-09-26T06:38:41.962Z,98260.47
2023-09-26T06:41:10.752Z,98263.25
2023-09-26T06:43:38.857Z,98266.19
2023-09-26T06:46:08.144Z,98271.00
2023-09-26T06:48:39.943Z,98299.25
2023-09-26T06:51:09.590Z,98284.91
2023-09-26T06:53:38.228Z,98294.63
2023-09-26T06:56:07.921Z,98289.03
2023-09-26T06:58:37.736Z,98312.75
2023-09-26T07:01:13.356Z,98330.59
2023-09-26T07:03:43.697Z,98292.63
2023-09-26T07:06:13.465Z,98317.16
2023-09-26T07:08:42.888Z,98333.69
2023-09-26T07:11:11.767Z,98342.81
2023-09-26T07:16:11.699Z,98352.28
2023-09-26T07:18:40.412Z,98350.47
2023-09-26T07:21:11.077Z,98376.63
2023-09-26T07:23:42.389Z,98312.72
2023-09-26T07:26:15.797Z,98359.03
2023-09-26T07:28:45.868Z,98337.13
2023-09-26T07:31:15.755Z,98359.31
2023-09-26T07:33:44.655Z,98371.03
2023-09-26T07:36:14.992Z,98345.41
2023-09-26T07:38:46.462Z,98338.34
2023-09-26T07:41:14.942Z,98326.22
2023-09-26T07:43:43.377Z,98365.47
2023-09-26T07:46:12.368Z,98384.47
2023-09-26T07:48:41.545Z,98373.06
2023-09-26T07:51:13.034Z,98373.06
2023-09-26T07:53:45.683Z,98394.88
2023-09-26T07:56:14.667Z,98406.63
2023-09-26T07:58:43.106Z,98368.25
2023-09-26T08:01:11.349Z,98386.16
2023-09-26T08:03:40.886Z,98411.75
2023-09-26T08:06:09.944Z,98353.53
2023-09-26T08:08:39.275Z,98371.03
2023-09-26T08:11:11.168Z,98370.28
2023-09-26T08:13:41.898Z,98394.38
2023-09-26T08:16:11.193Z,98382.94
2023-09-26T08:18:39.563Z,98354.28
2023-09-26T08:21:08.039Z,98384.41
2023-09-26T08:23:36.523Z,98443.91
2023-09-26T08:26:08.009Z,98436.72
2023-09-26T08:28:38.023Z,98421.31
2023-09-26T08:31:08.893Z,98407.38
2023-09-26T08:33:37.408Z,98379.13
2023-09-26T08:36:14.774Z,98375.56
2023-09-26T08:38:43.189Z,98332.00
2023-09-26T08:41:12.367Z,98408.25
2023-09-26T08:43:41.868Z,98354.16
2023-09-26T08:46:10.648Z,98351.47
2023-09-26T08:48:40.827Z,98413.38
2023-09-26T08:51:09.602Z,98440.78
2023-09-26T08:53:37.790Z,98387.78
2023-09-26T08:56:06.822Z,98362.16
2023-09-26T08:58:36.082Z,98402.81
2023-09-26T09:01:06.118Z,98396.38
2023-09-26T09:03:34.803Z,98349.59
2023-09-26T09:06:03.034Z,98396.41
2023-09-26T09:08:31.464Z,98366.44
2023-09-26T09:10:59.884Z,98358.81
2023-09-26T09:13:30.804Z,98372.78
2023-09-26T09:16:17.588Z,98399.75
2023-09-26T09:18:48.278Z,98414.47
2023-09-26T09:21:29.148Z,98371.34
2023-09-26T09:23:59.009Z,98325.53
2023-09-26T09:26:30.673Z,98310.47
2023-09-26T09:29:00.561Z,98336.69
2023-09-26T09:31:30.914Z,98308.75
2023-09-26T09:34:00.612Z,98343.25
2023-09-26T09:36:29.696Z,98326.69
2023-09-26T09:38:58.437Z,98311.09
2023-09-26T09:41:26.726Z,98346.56
2023-09-26T09:43:55.369Z,98314.91
2023-09-26T09:46:27.096Z,98296.31
2023-09-26T09:49:00.964Z,98294.41
2023-09-26T09:51:29.970Z,98295.88
2023-09-26T09:54:01.410Z,98243.69
2023-09-26T09:56:37.167Z,98268.69
2023-09-26T09:59:07.351Z,98234.03
2023-09-26T10:01:37.559Z,98235.81
2023-09-26T10:04:09.254Z,98236.69
2023-09-26T10:06:39.513Z,98238.34
2023-09-26T10:09:08.949Z,98260.94
2023-09-26T10:11:38.591Z,98257.09
2023-09-26T10:14:07.175Z,98235.59
2023-09-26T10:16:36.074Z,98222.78
2023-09-26T10:19:05.621Z,98248.72
2023-09-26T10:21:36.774Z,98236.41
2023-09-26T10:24:30.915Z,98236.03
2023-09-26T10:30:00.247Z,98229.59
2023-09-26T10:32:38.312Z,98247.91
2023-09-26T10:35:30.102Z,98229.25
2023-09-26T10:38:12.091Z,98210.16
2023-09-26T10:40:40.808Z,98207.38
2023-09-26T10:45:59.017Z,98180.41
2023-09-26T10:48:27.282Z,98185.25
2023-09-26T10:50:56.550Z,98198.53
2023-09-26T10:53:27.797Z,98193.66
2023-09-26T10:55:56.820Z,98186.25
2023-09-26T10:58:29.191Z,98180.16
2023-09-26T11:00:59.716Z,98178.78
2023-09-26T11:03:28.651Z,98165.53
2023-09-26T11:05:57.749Z,98166.16
2023-09-26T11:08:28.314Z,98168.41
2023-09-26T11:10:56.860Z,98187.47
2023-09-26T11:13:26.045Z,98172.75
2023-09-26T11:15:54.965Z,98168.19
2023-09-26T11:18:24.555Z,98155.44
2023-09-26T11:21:02.711Z,98164.63
2023-09-26T11:23:44.877Z,98148.25
2023-09-26T11:26:13.971Z,98163.75
2023-09-26T11:28:42.366Z,98160.00
2023-09-26T11:31:11.122Z,98178.38
2023-09-26T11:33:39.833Z,98170.94
2023-09-26T11:36:09.148Z,98161.72
2023-09-26T11:38:48.975Z,98151.41
2023-09-26T11:41:17.545Z,98151.19
2023-09-26T11:43:49.021Z,98137.00
2023-09-26T11:46:18.347Z,98152.13
2023-09-26T11:48:48.724Z,98135.16
2023-09-26T11:51:17.109Z,98132.72
2023-09-26T11:53:47.940Z,98116.22
2023-09-26T11:56:16.026Z,98120.59
2023-09-26T11:58:44.219Z,98119.75
2023-09-26T12:01:14.775Z,98126.91
2023-09-26T12:03:43.496Z,98112.22
2023-09-26T12:06:11.657Z,98119.53
2023-09-26T12:08:40.351Z,98117.03
2023-09-26T12:11:09.830Z,98116.19
2023-09-26T12:13:38.109Z,98107.53
2023-09-26T12:16:07.297Z,98119.88
2023-09-26T12:18:35.377Z,98115.47
2023-09-26T12:21:05.445Z,98113.03
2023-09-26T12:23:34.351Z,98101.44
2023-09-26T12:26:02.704Z,98107.13
2023-09-26T12:28:34.242Z,98099.63
2023-09-26T12:31:03.182Z,98104.38
2023-09-26T12:33:31.727Z,98095.22
2023-09-26T12:36:00.630Z,98092.16
2023-09-26T12:38:29.417Z,98092.91
2023-09-26T12:40:57.931Z,98082.44
2023-09-26T12:43:26.172Z,98086.97
2023-09-26T12:45:56.220Z,98088.97
2023-09-26T12:48:25.349Z,98083.88
2023-09-26T12:50:53.807Z,98083.47
2023-09-26T12:53:22.603Z,98091.13
2023-09-26T12:55:50.825Z,98074.00
2023-09-26T12:58:19.030Z,98076.28
2023-09-26T13:00:47.718Z,98071.16
2023-09-26T13:03:20.023Z,98067.03
2023-09-26T13:05:48.470Z,98064.72
2023-09-26T13:08:17.255Z,98070.13
2023-09-26T13:10:45.368Z,98074.78
2023-09-26T13:13:13.681Z,98078.47
2023-09-26T13:15:42.364Z,98068.09
2023-09-26T13:18:11.144Z,98066.84
2023-09-26T13:20:40.740Z,98059.50
2023-09-26T13:23:09.589Z,98067.16
2023-09-26T13:25:37.775Z,98067.81
2023-09-26T13:28:06.469Z,98071.16
2023-09-26T13:30:36.438Z,98074.22
2023-09-26T13:33:07.022Z,98059.84
2023-09-26T13:35:35.669Z,98055.94
2023-09-26T13:38:05.785Z,98050.81
2023-09-26T13:40:34.279Z,98052.69
2023-09-26T13:43:02.826Z,98031.47
2023-09-26T13:45:30.974Z,98051.06
2023-09-26T13:47:59.204Z,98054.28
2023-09-26T13:50:27.778Z,98062.13
2023-09-26T13:52:55.997Z,98068.84
2023-09-26T13:55:27.498Z,98058.97
2023-09-26T13:57:56.157Z,98061.28
2023-09-26T14:00:24.367Z,98057.97
2023-09-26T14:02:54.203Z,98062.03
2023-09-26T14:05:24.752Z,98047.06
2023-09-26T14:07:53.322Z,98055.41
2023-09-26T14:10:23.959Z,98048.66
2023-09-26T14:12:54.934Z,98053.53
2023-09-26T14:15:23.708Z,98050.13
2023-09-26T14:17:53.899Z,98055.84
2023-09-26T14:20:23.119Z,98037.31
2023-09-26T14:22:52.099Z,98045.50
2023-09-26T14:25:21.075Z,98044.72
2023-09-26T14:27:50.041Z,98055.00
2023-09-26T14:30:20.405Z,98049.84
2023-09-26T14:32:49.881Z,98052.50
2023-09-26T14:35:18.627Z,98048.81
2023-09-26T14:37:48.596Z,98056.59
2023-09-26T14:40:16.856Z,98047.50
2023-09-26T14:42:45.915Z,98056.03
2023-09-26T14:45:15.154Z,98047.75
2023-09-26T14:47:44.919Z,98046.06
2023-09-26T14:50:13.428Z,98041.50
2023-09-26T14:52:42.309Z,98056.59
2023-09-26T14:55:10.845Z,98049.03
2023-09-26T14:57:39.064Z,98043.16
2023-09-26T15:00:10.584Z,98046.88
2023-09-26T15:02:39.531Z,98039.16
2023-09-26T15:05:10.141Z,98039.38
2023-09-26T15:07:38.519Z,98041.66
2023-09-26T15:10:09.483Z,98044.03
2023-09-26T15:12:37.664Z,98041.63
2023-09-26T15:15:07.015Z,98043.41
2023-09-26T15:17:35.923Z,98034.81
2023-09-26T15:20:05.081Z,98041.78
2023-09-26T15:22:34.753Z,98036.44
2023-09-26T15:25:04.049Z,98035.19
2023-09-26T15:27:32.737Z,98038.25
2023-09-26T15:30:01.155Z,98043.00
2023-09-26T15:32:29.925Z,98034.44
2023-09-26T15:34:59.038Z,98044.03
2023-09-26T15:37:30.120Z,98043.72
2023-09-26T15:40:02.077Z,98041.16
2023-09-26T15:42:30.397Z,98040.19
2023-09-26T15:44:59.188Z,98028.59
2023-09-26T15:47:29.221Z,98043.66
2023-09-26T15:49:57.548Z,98033.78
2023-09-26T15:52:25.943Z,98031.31
2023-09-26T15:54:54.377Z,98026.31
2023-09-26T15:57:23.872Z,98027.69
2023-09-26T15:59:52.621Z,98028.72
2023-09-26T16:02:21.625Z,98024.34
2023-09-26T16:04:50.466Z,98019.50
2023-09-26T16:07:18.718Z,98014.53
2023-09-26T16:09:46.970Z,98021.59
2023-09-26T16:12:15.242Z,98028.28
2023-09-26T16:14:44.901Z,98020.19
2023-09-26T16:17:14.083Z,98018.47
2023-09-26T16:19:42.595Z,98012.09
2023-09-26T16:22:11.450Z,98016.91
2023-09-26T16:24:40.533Z,98014.09
2023-09-26T16:27:08.878Z,98017.44
2023-09-26T16:29:37.075Z,98023.31
2023-09-26T16:32:07.451Z,98022.81
2023-09-26T16:34:35.700Z,98016.13
2023-09-26T16:37:04.138Z,98019.38
2023-09-26T16:39:32.877Z,98030.28
2023-09-26T16:42:02.123Z,98026.28
2023-09-26T16:44:30.442Z,98020.44
2023-09-26T16:46:59.334Z,98019.41
2023-09-26T16:49:28.965Z,98020.22
2023-09-26T16:51:57.109Z,98025.81
2023-09-26T16:54:25.860Z,98026.59
2023-09-26T16:56:54.192Z,98025.28
2023-09-26T16:59:22.479Z,98028.28
2023-09-26T17:01:52.230Z,98021.72
2023-09-26T17:04:21.681Z,98034.47
2023-09-26T17:06:57.183Z,98034.91
2023-09-26T17:09:25.697Z,98032.41
2023-09-26T17:11:54.131Z,98036.91
2023-09-26T17:14:25.423Z,98029.06
2023-09-26T17:16:53.599Z,98028.53
2023-09-26T17:19:21.843Z,98022.41
2023-09-26T17:21:51.946Z,98023.56
2023-09-26T17:24:20.579Z,98023.94
2023-09-26T17:26:48.843Z,98010.25
2023-09-26T17:29:17.457Z,98021.00
2023-09-26T17:31:46.070Z,98021.72
2023-09-26T17:34:14.325Z,98016.94
2023-09-26T17:36:43.085Z,98020.78
2023-09-26T17:39:13.408Z,97991.50
2023-09-26T17:41:41.893Z,98015.88
2023-09-26T17:44:11.312Z,98020.09
2023-09-26T17:46:43.740Z,98018.38
2023-09-26T17:49:12.920Z,98031.44
2023-09-26T17:51:41.437Z,98022.50
2023-09-26T17:54:09.576Z,98011.38
2023-09-26T17:56:39.537Z,98027.50
2023-09-26T17:59:07.737Z,98009.88
2023-09-26T18:01:36.372Z,98017.75
2023-09-26T18:04:04.970Z,98012.69
2023-09-26T18:06:33.077Z,98013.56
2023-09-26T18:09:01.633Z,98023.13
2023-09-26T18:11:29.704Z,98032.56
2023-09-26T18:13:59.133Z,98031.75
2023-09-26T18:16:27.952Z,98031.34
2023-09-26T18:18:56.241Z,98029.03
2023-09-26T18:21:25.127Z,98031.22
2023-09-26T18:23:55.625Z,98030.28
2023-09-26T18:26:24.310Z,98031.75
2023-09-26T18:28:52.448Z,98039.13
2023-09-26T18:31:22.544Z,98032.75
2023-09-26T18:33:50.671Z,98039.25
2023-09-26T18:36:18.860Z,98028.13
2023-09-26T18:38:47.396Z,98050.00
2023-09-26T18:41:15.515Z,98034.44
2023-09-26T18:43:43.695Z,98037.16
2023-09-26T18:46:12.502Z,98034.00
2023-09-26T18:48:41.997Z,98031.31
2023-09-26T18:51:09.919Z,98026.72
2023-09-26T18:53:38.521Z,98031.78
2023-09-26T18:56:06.779Z,98035.97
2023-09-26T18:58:34.944Z,98026.75
2023-09-26T19:01:03.560Z,98017.59
2023-09-26T19:03:31.809Z,98019.50
2023-09-26T19:06:04.480Z,98025.72
2023-09-26T19:08:32.853Z,98025.63
2023-09-26T19:11:01.577Z,98013.72
2023-09-26T19:13:30.237Z,98020.38
2023-09-26T19:15:58.386Z,98023.13
2023-09-26T19:18:26.572Z,98018.66
2023-09-26T19:20:55.525Z,98031.50
2023-09-26T19:23:24.990Z,98019.47
2023-09-26T19:25:53.448Z,98028.63
2023-09-26T19:28:22.898Z,98028.16
2023-09-26T19:30:50.941Z,98029.72
2023-09-26T19:33:19.805Z,98032.22
2023-09-26T19:35:47.921Z,98029.72
2023-09-26T19:38:16.791Z,98028.25
2023-09-26T19:40:46.697Z,98030.41
2023-09-26T19:43:14.728Z,98035.44
2023-09-26T19:45:42.770Z,98026.13
2023-09-26T19:48:11.946Z,98026.44
2023-09-26T19:50:40.188Z,98022.72
2023-09-26T19:53:08.252Z,98022.25
2023-09-26T19:55:36.689Z,98021.94
2023-09-26T19:58:06.496Z,98023.22
2023-09-26T20:00:35.038Z,98031.69
2023-09-26T20:03:03.487Z,98031.56
2023-09-26T20:05:31.634Z,98031.88
2023-09-26T20:08:00.228Z,98029.00
2023-09-26T20:10:28.519Z,98032.09
2023-09-26T20:12:56.864Z,98006.88
2023-09-26T20:15:27.023Z,98024.06
2023-09-26T20:17:55.369Z,98016.31
2023-09-26T20:20:23.903Z,98010.06
2023-09-26T20:22:52.161Z,98019.53
2023-09-26T20:25:20.684Z,98020.50
2023-09-26T20:27:52.128Z,98026.59
2023-09-26T20:30:20.881Z,98024.06
2023-09-26T20:32:50.544Z,97994.09
2023-09-26T20:35:18.820Z,98014.88
2023-09-26T20:37:47.144Z,98015.84
2023-09-26T20:40:15.173Z,98006.78
2023-09-26T20:42:43.212Z,98007.09
2023-09-26T20:45:12.220Z,98009.31
2023-09-26T20:47:40.284Z,98004.19
2023-09-26T20:50:10.635Z,98013.34
2023-09-26T20:52:38.667Z,98016.06
2023-09-26T20:55:07.928Z,98003.50
2023-09-26T20:57:36.056Z,97996.00
2023-09-26T21:00:05.741Z,98005.44
2023-09-26T21:02:34.741Z,97999.97
2023-09-26T21:05:03.294Z,97995.50
2023-09-26T21:07:33.316Z,98006.13
2023-09-26T21:10:01.426Z,98014.47
2023-09-26T21:12:29.607Z,98004.84
2023-09-26T21:14:57.987Z,98016.41
2023-09-26T21:17:25.981Z,98011.41
2023-09-26T21:19:54.139Z,98013.81
2023-09-26T21:22:22.659Z,98018.28
2023-09-26T21:24:52.092Z,98016.19
2023-09-26T21:27:20.155Z,98018.22
2023-09-26T21:29:48.826Z,98017.19
2023-09-26T21:32:17.344Z,98007.38
2023-09-26T21:34:45.720Z,98012.25
2023-09-26T21:37:13.809Z,98007.44
2023-09-26T21:39:41.828Z,98005.66
2023-09-26T21:42:11.261Z,97987.38
2023-09-26T21:44:39.714Z,98006.94
2023-09-26T21:47:07.890Z,98011.47
2023-09-26T21:49:36.111Z,97992.69
2023-09-26T21:52:04.563Z,98023.47
2023-09-26T21:54:32.656Z,98013.63
2023-09-26T21:57:03.847Z,98016.75
2023-09-26T21:59:33.584Z,98015.28
2023-09-26T22:02:02.036Z,98017.22
2023-09-26T22:07:20.473Z,98015.44
2023-09-26T22:09:48.516Z,98008.69
2023-09-26T22:12:17.463Z,98009.84
2023-09-26T22:14:47.238Z,98006.38
2023-09-26T22:17:15.610Z,98005.09
2023-09-26T22:19:44.308Z,98004.59
2023-09-26T22:22:13.187Z,97999.47
2023-09-26T22:24:41.655Z,98005.34
2023-09-26T22:27:09.674Z,97999.22
2023-09-26T22:29:37.803Z,98009.53
2023-09-26T22:32:07.744Z,98005.34
2023-09-26T22:34:37.616Z,98001.56
2023-09-26T22:37:05.613Z,98008.75
2023-09-26T22:39:34.484Z,98014.72
2023-09-26T22:42:02.579Z,98008.72
2023-09-26T22:44:32.206Z,97999.75
2023-09-26T22:47:00.762Z,98006.38
2023-09-26T22:49:30.309Z,98004.75
2023-09-26T22:52:00.176Z,98003.47
2023-09-26T22:54:28.436Z,98001.69
2023-09-26T22:56:57.163Z,98003.28
2023-09-26T22:59:26.309Z,97997.19
2023-09-26T23:01:54.698Z,97995.16
2023-09-26T23:04:23.190Z,98003.94
2023-09-26T23:06:53.076Z,97995.59
2023-09-26T23:09:21.073Z,97996.09
2023-09-26T23:11:49.039Z,97996.66
2023-09-26T23:14:17.332Z,97999.94
2023-09-26T23:16:45.376Z,98002.06
2023-09-26T23:19:13.367Z,98001.75
2023-09-26T23:21:41.649Z,97992.28
2023-09-26T23:24:11.533Z,97985.94
2023-09-26T23:26:39.493Z,97990.16
2023-09-26T23:29:08.115Z,97986.44
2023-09-26T23:31:39.733Z,97984.03
2023-09-26T23:34:07.902Z,97981.41
2023-09-26T23:36:36.293Z,97976.78
2023-09-26T23:39:07.130Z,97992.00
2023-09-26T23:41:37.064Z,97988.50
2023-09-26T23:44:08.397Z,97984.53
2023-09-26T23:46:36.924Z,97981.22
2023-09-26T23:49:05.034Z,97972.97
2023-09-26T23:51:33.463Z,97977.69
2023-09-26T23:54:01.490Z,97971.97
2023-09-26T23:56:29.619Z,97972.28
2023-09-26T23:58:59.446Z,97975.28
